Ana Sayfa
METAR-TAF:

METAR-TAF

Havaalanları :

Oceanside Municipal Airport

Oceanside, Kaliforniya, Amerika Birleşik Devletleri

Enlem: 33-13-05N, Boylam: 117-21-05W, yükseklik: 9 m

Güncel hava durumu gözlemi

Rapor saat 00:52 UTC de 33 dakika önce yapıldı.
Rüzgar batıdan 6 kt
Sıcaklık 15°C
Nem 77%
Basınç 1021 hPa
Görüş mesafesi: 16.1 km
5500 ft yükseklikte parçalı çok bulutlu

METAR: KOKB 220052Z AUTO 27006KT 10SM BKN055 15/11 A3014 RMK AO2 SLP206 T01500106

Saat: 17:25 (01:25 UTC)


TAF: eksik

4.000'den fazla havaalanı için hava durumu gözlemleri ve tahminleri (METAR ve TAF raporları).

Kullanılabilir istasyonlar harita üzerinde sarı ve kırmızı noktalarla gösterilir.

İstasyonun adını görmek için fareyi noktanın üzerinde gezdirin.

Sonrasında hava gözlem ve tahminlerini görmek için tıklayın.

Haritayı değiştirmek için: yaklaştırmak için siyah artı işaretli yeşil düğmeye ve uzaklaştırmak için de eksi işaretli düğmeye hızla tıklayın; bitişik haritalar için yeşil okları kullanın.


METAR-TAF: